sensor_id;sensor_type;location;lat;lon;timestamp;pressure;altitude;pressure_sealevel;temperature;humidity
51603;BME280;37954;51.980;5.850;2023-03-23T00:02:52;99907.88;;;12.06;93.31
51603;BME280;37954;51.980;5.850;2023-03-23T00:07:04;99919.47;;;12.06;93.03
51603;BME280;37954;51.980;5.850;2023-03-23T00:11:15;99906.69;;;11.97;92.73
51603;BME280;37954;51.980;5.850;2023-03-23T00:15:26;99902.44;;;12.01;92.91
51603;BME280;37954;51.980;5.850;2023-03-23T00:19:38;99903.81;;;12.03;92.60
51603;BME280;37954;51.980;5.850;2023-03-23T00:23:57;99904.31;;;12.00;92.17
51603;BME280;37954;51.980;5.850;2023-03-23T00:28:09;99904.63;;;12.04;92.56
51603;BME280;37954;51.980;5.850;2023-03-23T00:32:24;99903.09;;;12.13;92.03
51603;BME280;37954;51.980;5.850;2023-03-23T00:36:38;99901.44;;;12.07;91.94
51603;BME280;37954;51.980;5.850;2023-03-23T00:40:56;99909.56;;;12.12;91.85
51603;BME280;37954;51.980;5.850;2023-03-23T00:45:07;99928.13;;;12.13;91.78
51603;BME280;37954;51.980;5.850;2023-03-23T00:49:21;99917.09;;;12.10;91.29
51603;BME280;37954;51.980;5.850;2023-03-23T00:53:36;99928.13;;;12.13;91.38
51603;BME280;37954;51.980;5.850;2023-03-23T00:57:46;99918.75;;;12.16;91.34
51603;BME280;37954;51.980;5.850;2023-03-23T01:01:59;99896.06;;;12.07;91.42
51603;BME280;37954;51.980;5.850;2023-03-23T01:06:10;99879.69;;;12.13;91.49
51603;BME280;37954;51.980;5.850;2023-03-23T01:10:26;99836.06;;;12.11;91.00
51603;BME280;37954;51.980;5.850;2023-03-23T01:14:37;99817.47;;;12.10;91.12
51603;BME280;37954;51.980;5.850;2023-03-23T01:18:47;99828.50;;;12.08;90.88
51603;BME280;37954;51.980;5.850;2023-03-23T01:22:58;99822.56;;;12.06;90.31
51603;BME280;37954;51.980;5.850;2023-03-23T01:27:11;99840.03;;;12.04;90.43
51603;BME280;37954;51.980;5.850;2023-03-23T01:31:24;99821.44;;;12.02;90.26
51603;BME280;37954;51.980;5.850;2023-03-23T01:35:37;99808.63;;;12.14;89.79
51603;BME280;37954;51.980;5.850;2023-03-23T01:39:48;99801.88;;;12.12;89.40
51603;BME280;37954;51.980;5.850;2023-03-23T01:44:06;99791.13;;;12.12;89.27
51603;BME280;37954;51.980;5.850;2023-03-23T01:48:32;99782.50;;;12.15;89.14
51603;BME280;37954;51.980;5.850;2023-03-23T01:52:44;99800.53;;;12.14;88.87
51603;BME280;37954;51.980;5.850;2023-03-23T01:56:59;99794.59;;;12.12;88.40
51603;BME280;37954;51.980;5.850;2023-03-23T02:01:13;99788.63;;;12.05;88.03
51603;BME280;37954;51.980;5.850;2023-03-23T02:05:32;99795.38;;;12.08;88.52
51603;BME280;37954;51.980;5.850;2023-03-23T02:09:51;99784.94;;;12.11;88.52
51603;BME280;37954;51.980;5.850;2023-03-23T02:14:02;99789.53;;;12.16;88.66
51603;BME280;37954;51.980;5.850;2023-03-23T02:23:07;99778.34;;;12.29;88.65
51603;BME280;37954;51.980;5.850;2023-03-23T02:36:38;99762.72;;;12.31;88.89
51603;BME280;37954;51.980;5.850;2023-03-23T02:40:50;99787.28;;;12.40;88.68
51603;BME280;37954;51.980;5.850;2023-03-23T02:45:07;99784.03;;;12.38;88.74
51603;BME280;37954;51.980;5.850;2023-03-23T02:49:19;99769.19;;;12.35;88.69
51603;BME280;37954;51.980;5.850;2023-03-23T02:53:33;99776.53;;;12.40;88.73
51603;BME280;37954;51.980;5.850;2023-03-23T02:57:45;99769.75;;;12.37;88.51
51603;BME280;37954;51.980;5.850;2023-03-23T03:02:06;99780.03;;;12.40;88.75
51603;BME280;37954;51.980;5.850;2023-03-23T03:06:36;99767.88;;;12.38;88.41
51603;BME280;37954;51.980;5.850;2023-03-23T03:11:11;99774.94;;;12.44;88.24
51603;BME280;37954;51.980;5.850;2023-03-23T03:15:34;99771.66;;;12.37;88.33
51603;BME280;37954;51.980;5.850;2023-03-23T03:19:49;99764.94;;;12.39;88.06
51603;BME280;37954;51.980;5.850;2023-03-23T03:24:03;99758.22;;;12.42;88.35
51603;BME280;37954;51.980;5.850;2023-03-23T03:28:16;99755.75;;;12.35;88.14
51603;BME280;37954;51.980;5.850;2023-03-23T03:32:43;99748.00;;;12.44;88.07
51603;BME280;37954;51.980;5.850;2023-03-23T03:36:58;99766.31;;;12.42;87.97
51603;BME280;37954;51.980;5.850;2023-03-23T03:41:10;99749.31;;;12.41;88.59
51603;BME280;37954;51.980;5.850;2023-03-23T03:45:21;99756.84;;;12.39;88.52
51603;BME280;37954;51.980;5.850;2023-03-23T03:49:31;99764.69;;;12.41;88.63
51603;BME280;37954;51.980;5.850;2023-03-23T03:53:42;99753.00;;;12.30;88.97
51603;BME280;37954;51.980;5.850;2023-03-23T03:57:52;99761.13;;;12.35;88.82
51603;BME280;37954;51.980;5.850;2023-03-23T04:02:28;99739.03;;;12.33;88.79
51603;BME280;37954;51.980;5.850;2023-03-23T04:06:39;99751.16;;;12.36;88.51
51603;BME280;37954;51.980;5.850;2023-03-23T04:10:50;99761.16;;;12.40;88.32
51603;BME280;37954;51.980;5.850;2023-03-23T04:15:03;99756.09;;;12.44;88.39
51603;BME280;37954;51.980;5.850;2023-03-23T04:19:18;99745.00;;;12.40;87.99
51603;BME280;37954;51.980;5.850;2023-03-23T04:23:30;99749.63;;;12.45;87.61
51603;BME280;37954;51.980;5.850;2023-03-23T04:27:49;99775.75;;;12.49;87.42
51603;BME280;37954;51.980;5.850;2023-03-23T04:32:07;99760.09;;;12.41;87.14
51603;BME280;37954;51.980;5.850;2023-03-23T04:36:25;99778.75;;;12.53;87.09
51603;BME280;37954;51.980;5.850;2023-03-23T04:40:43;99765.25;;;12.48;86.75
51603;BME280;37954;51.980;5.850;2023-03-23T04:45:09;99776.31;;;12.51;86.38
51603;BME280;37954;51.980;5.850;2023-03-23T04:49:22;99778.75;;;12.53;86.15
51603;BME280;37954;51.980;5.850;2023-03-23T04:53:38;99787.66;;;12.53;85.88
51603;BME280;37954;51.980;5.850;2023-03-23T04:57:49;99789.00;;;12.56;85.77
51603;BME280;37954;51.980;5.850;2023-03-23T05:02:27;99799.28;;;12.59;85.04
51603;BME280;37954;51.980;5.850;2023-03-23T05:06:42;99796.31;;;12.61;84.74
51603;BME280;37954;51.980;5.850;2023-03-23T05:11:00;99789.00;;;12.56;84.46
51603;BME280;37954;51.980;5.850;2023-03-23T05:15:16;99794.06;;;12.47;84.37
51603;BME280;37954;51.980;5.850;2023-03-23T05:19:29;99777.84;;;12.37;84.21
51603;BME280;37954;51.980;5.850;2023-03-23T05:23:42;99793.00;;;12.48;83.98
51603;BME280;37954;51.980;5.850;2023-03-23T05:28:02;99807.00;;;12.45;83.62
51603;BME280;37954;51.980;5.850;2023-03-23T05:32:32;99797.84;;;12.46;83.41
51603;BME280;37954;51.980;5.850;2023-03-23T05:36:53;99803.25;;;12.46;83.46
51603;BME280;37954;51.980;5.850;2023-03-23T05:41:12;99800.56;;;12.51;83.05
51603;BME280;37954;51.980;5.850;2023-03-23T05:45:25;99798.44;;;12.53;83.35
51603;BME280;37954;51.980;5.850;2023-03-23T05:49:36;99805.44;;;12.54;82.99
51603;BME280;37954;51.980;5.850;2023-03-23T05:53:51;99795.97;;;12.52;82.80
51603;BME280;37954;51.980;5.850;2023-03-23T05:58:02;99812.44;;;12.55;82.81
51603;BME280;37954;51.980;5.850;2023-03-23T06:02:17;99812.19;;;12.57;82.70
51603;BME280;37954;51.980;5.850;2023-03-23T06:06:29;99820.84;;;12.64;82.60
51603;BME280;37954;51.980;5.850;2023-03-23T06:10:49;99831.91;;;12.68;82.65
51603;BME280;37954;51.980;5.850;2023-03-23T06:15:00;99816.25;;;12.60;82.58
51603;BME280;37954;51.980;5.850;2023-03-23T06:19:31;99823.84;;;12.68;82.74
51603;BME280;37954;51.980;5.850;2023-03-23T06:23:50;99817.09;;;12.65;82.52
51603;BME280;37954;51.980;5.850;2023-03-23T06:28:03;99828.25;;;12.79;82.58
51603;BME280;37954;51.980;5.850;2023-03-23T06:32:16;99836.91;;;12.86;82.05
51603;BME280;37954;51.980;5.850;2023-03-23T06:36:28;99838.00;;;12.90;81.78
51603;BME280;37954;51.980;5.850;2023-03-23T06:41:05;99839.31;;;12.87;81.28
51603;BME280;37954;51.980;5.850;2023-03-23T06:45:17;99840.13;;;12.88;81.34
51603;BME280;37954;51.980;5.850;2023-03-23T06:49:30;99869.88;;;12.98;81.35
51603;BME280;37954;51.980;5.850;2023-03-23T06:53:58;99864.91;;;12.85;81.33
51603;BME280;37954;51.980;5.850;2023-03-23T06:58:12;99873.25;;;12.83;81.56
51603;BME280;37954;51.980;5.850;2023-03-23T07:02:23;99870.59;;;12.88;81.96
51603;BME280;37954;51.980;5.850;2023-03-23T07:06:36;99864.09;;;12.79;82.16
51603;BME280;37954;51.980;5.850;2023-03-23T07:10:54;99874.63;;;12.81;82.33
51603;BME280;37954;51.980;5.850;2023-03-23T07:15:09;99879.75;;;12.87;82.19
51603;BME280;37954;51.980;5.850;2023-03-23T07:19:23;99885.50;;;12.96;82.33
51603;BME280;37954;51.980;5.850;2023-03-23T07:23:35;99888.47;;;13.00;82.58
51603;BME280;37954;51.980;5.850;2023-03-23T07:27:53;99896.88;;;13.08;82.36
51603;BME280;37954;51.980;5.850;2023-03-23T07:32:06;99896.19;;;13.23;82.63
51603;BME280;37954;51.980;5.850;2023-03-23T07:36:16;99903.50;;;13.28;82.33
51603;BME280;37954;51.980;5.850;2023-03-23T07:40:28;99904.84;;;13.25;80.98
51603;BME280;37954;51.980;5.850;2023-03-23T07:44:44;99906.13;;;13.17;79.37
51603;BME280;37954;51.980;5.850;2023-03-23T07:48:57;99916.06;;;13.12;78.97
51603;BME280;37954;51.980;5.850;2023-03-23T07:53:15;99914.88;;;12.98;79.49
51603;BME280;37954;51.980;5.850;2023-03-23T07:57:30;99938.09;;;12.99;79.89
51603;BME280;37954;51.980;5.850;2023-03-23T08:01:41;99925.28;;;12.84;80.47
51603;BME280;37954;51.980;5.850;2023-03-23T08:06:24;99939.19;;;12.71;81.64
51603;BME280;37954;51.980;5.850;2023-03-23T08:10:55;99958.66;;;12.78;81.94
51603;BME280;37954;51.980;5.850;2023-03-23T08:15:22;99956.66;;;12.63;83.09
51603;BME280;37954;51.980;5.850;2023-03-23T08:20:11;99951.78;;;12.60;84.28
51603;BME280;37954;51.980;5.850;2023-03-23T08:24:42;99944.50;;;12.61;84.98
51603;BME280;37954;51.980;5.850;2023-03-23T08:29:12;99960.56;;;12.77;85.00
51603;BME280;37954;51.980;5.850;2023-03-23T08:33:55;99982.66;;;12.79;85.21
51603;BME280;37954;51.980;5.850;2023-03-23T08:38:33;99973.34;;;12.92;85.67
51603;BME280;37954;51.980;5.850;2023-03-23T08:43:05;99950.22;;;13.01;85.65
51603;BME280;37954;51.980;5.850;2023-03-23T08:47:49;99957.75;;;13.31;85.37
51603;BME280;37954;51.980;5.850;2023-03-23T08:52:11;99972.84;;;13.32;83.96
51603;BME280;37954;51.980;5.850;2023-03-23T08:56:37;99978.31;;;13.42;83.12
51603;BME280;37954;51.980;5.850;2023-03-23T09:01:07;99967.03;;;13.50;82.70
51603;BME280;37954;51.980;5.850;2023-03-23T09:05:27;99974.56;;;13.53;81.71
51603;BME280;37954;51.980;5.850;2023-03-23T09:09:47;99979.97;;;13.48;80.82
51603;BME280;37954;51.980;5.850;2023-03-23T09:13:58;99995.09;;;13.49;80.19
51603;BME280;37954;51.980;5.850;2023-03-23T09:18:09;99986.25;;;13.64;79.96
51603;BME280;37954;51.980;5.850;2023-03-23T09:22:19;99982.75;;;14.31;79.33
51603;BME280;37954;51.980;5.850;2023-03-23T09:26:33;99987.16;;;15.28;77.31
51603;BME280;37954;51.980;5.850;2023-03-23T09:30:44;100001.19;;;15.61;73.91
51603;BME280;37954;51.980;5.850;2023-03-23T09:34:55;100002.22;;;15.85;72.67
51603;BME280;37954;51.980;5.850;2023-03-23T09:39:06;100000.53;;;16.54;70.12
51603;BME280;37954;51.980;5.850;2023-03-23T09:48:36;100000.25;;;16.55;66.04
51603;BME280;37954;51.980;5.850;2023-03-23T09:52:46;100012.44;;;17.89;65.74
51603;BME280;37954;51.980;5.850;2023-03-23T09:57:01;100006.81;;;19.03;62.25
51603;BME280;37954;51.980;5.850;2023-03-23T10:01:38;100015.41;;;19.24;59.20
51603;BME280;37954;51.980;5.850;2023-03-23T10:05:51;100019.09;;;19.00;59.13
51603;BME280;37954;51.980;5.850;2023-03-23T10:10:03;100020.81;;;20.02;58.57
51603;BME280;37954;51.980;5.850;2023-03-23T10:14:37;100020.28;;;20.55;55.61
51603;BME280;37954;51.980;5.850;2023-03-23T10:19:12;100042.75;;;21.33;54.23
51603;BME280;37954;51.980;5.850;2023-03-23T10:23:58;100033.63;;;21.68;51.78
51603;BME280;37954;51.980;5.850;2023-03-23T10:28:21;100048.69;;;21.57;50.76
51603;BME280;37954;51.980;5.850;2023-03-23T10:33:02;100048.16;;;20.52;49.90
51603;BME280;37954;51.980;5.850;2023-03-23T10:37:20;100037.84;;;19.53;51.33
51603;BME280;37954;51.980;5.850;2023-03-23T10:41:32;100039.53;;;19.17;52.66
51603;BME280;37954;51.980;5.850;2023-03-23T10:45:45;100041.97;;;19.51;53.56
51603;BME280;37954;51.980;5.850;2023-03-23T10:50:00;100044.13;;;19.35;52.59
51603;BME280;37954;51.980;5.850;2023-03-23T10:54:24;100042.75;;;19.19;52.55
51603;BME280;37954;51.980;5.850;2023-03-23T10:58:35;100043.41;;;19.10;52.52
51603;BME280;37954;51.980;5.850;2023-03-23T11:07:26;100045.38;;;19.24;52.41
51603;BME280;37954;51.980;5.850;2023-03-23T11:11:52;100048.44;;;19.55;51.75
51603;BME280;37954;51.980;5.850;2023-03-23T11:16:04;100040.66;;;19.29;51.33
51603;BME280;37954;51.980;5.850;2023-03-23T11:20:19;100038.88;;;19.85;52.52
51603;BME280;37954;51.980;5.850;2023-03-23T11:24:36;100038.09;;;20.25;51.75
51603;BME280;37954;51.980;5.850;2023-03-23T11:33:21;100030.44;;;20.63;49.70
51603;BME280;37954;51.980;5.850;2023-03-23T11:37:35;100038.97;;;20.84;50.01
51603;BME280;37954;51.980;5.850;2023-03-23T11:41:46;100040.75;;;21.47;47.88
51603;BME280;37954;51.980;5.850;2023-03-23T11:46:15;100044.03;;;20.55;47.87
51603;BME280;37954;51.980;5.850;2023-03-23T11:50:50;100049.38;;;19.77;49.27
51603;BME280;37954;51.980;5.850;2023-03-23T11:55:22;100045.25;;;19.15;50.18
51603;BME280;37954;51.980;5.850;2023-03-23T11:59:34;100056.34;;;18.86;51.39
51603;BME280;37954;51.980;5.850;2023-03-23T12:13:21;100024.28;;;17.74;53.63
51603;BME280;37954;51.980;5.850;2023-03-23T12:26:30;100020.84;;;17.34;56.15
51603;BME280;37954;51.980;5.850;2023-03-23T12:31:01;100024.94;;;17.61;56.50
51603;BME280;37954;51.980;5.850;2023-03-23T12:44:12;100023.72;;;17.77;56.44
51603;BME280;37954;51.980;5.850;2023-03-23T12:48:29;100029.94;;;17.78;56.46
51603;BME280;37954;51.980;5.850;2023-03-23T12:52:47;100026.06;;;17.55;56.79
51603;BME280;37954;51.980;5.850;2023-03-23T12:57:07;100045.59;;;16.94;59.47
51603;BME280;37954;51.980;5.850;2023-03-23T13:01:25;100033.25;;;16.23;62.78
51603;BME280;37954;51.980;5.850;2023-03-23T13:05:46;100043.66;;;15.91;64.92
51603;BME280;37954;51.980;5.850;2023-03-23T13:10:18;100010.66;;;15.69;67.01
51603;BME280;37954;51.980;5.850;2023-03-23T13:23:45;100053.19;;;15.27;69.43
51603;BME280;37954;51.980;5.850;2023-03-23T13:28:00;100028.56;;;15.34;70.40
51603;BME280;37954;51.980;5.850;2023-03-23T13:32:17;100040.41;;;15.84;71.18
51603;BME280;37954;51.980;5.850;2023-03-23T13:36:38;100030.34;;;15.99;71.46
51603;BME280;37954;51.980;5.850;2023-03-23T13:40:50;100023.50;;;16.12;70.92
51603;BME280;37954;51.980;5.850;2023-03-23T13:49:28;100045.78;;;15.99;70.84
51603;BME280;37954;51.980;5.850;2023-03-23T13:53:48;100048.72;;;16.13;70.72
51603;BME280;37954;51.980;5.850;2023-03-23T14:02:34;100025.38;;;16.22;70.03
51603;BME280;37954;51.980;5.850;2023-03-23T14:06:49;100023.28;;;16.04;69.66
51603;BME280;37954;51.980;5.850;2023-03-23T14:11:22;100030.94;;;15.86;70.00
51603;BME280;37954;51.980;5.850;2023-03-23T14:15:42;100021.19;;;15.85;70.61
51603;BME280;37954;51.980;5.850;2023-03-23T14:19:55;100039.56;;;15.93;71.05
51603;BME280;37954;51.980;5.850;2023-03-23T14:24:28;100049.06;;;15.86;71.88
51603;BME280;37954;51.980;5.850;2023-03-23T14:28:40;100042.56;;;15.92;72.33
51603;BME280;37954;51.980;5.850;2023-03-23T14:32:52;100037.63;;;16.09;72.33
51603;BME280;37954;51.980;5.850;2023-03-23T14:37:04;100041.31;;;16.28;72.28
51603;BME280;37954;51.980;5.850;2023-03-23T14:41:14;100035.28;;;16.47;71.63
51603;BME280;37954;51.980;5.850;2023-03-23T14:45:25;100037.13;;;16.56;70.60
51603;BME280;37954;51.980;5.850;2023-03-23T14:49:38;100001.59;;;16.58;70.31
51603;BME280;37954;51.980;5.850;2023-03-23T14:53:52;99983.47;;;16.48;69.34
51603;BME280;37954;51.980;5.850;2023-03-23T14:58:08;99979.22;;;16.37;68.34
51603;BME280;37954;51.980;5.850;2023-03-23T15:02:25;99971.13;;;16.32;68.37
51603;BME280;37954;51.980;5.850;2023-03-23T15:06:39;99958.97;;;16.24;67.69
51603;BME280;37954;51.980;5.850;2023-03-23T15:10:54;99955.75;;;16.17;66.24
51603;BME280;37954;51.980;5.850;2023-03-23T15:15:07;99978.75;;;16.25;66.20
51603;BME280;37954;51.980;5.850;2023-03-23T15:19:33;99966.66;;;16.07;65.65
51603;BME280;37954;51.980;5.850;2023-03-23T15:23:45;99986.16;;;16.04;65.60
51603;BME280;37954;51.980;5.850;2023-03-23T15:28:06;99974.00;;;15.96;65.49
51603;BME280;37954;51.980;5.850;2023-03-23T15:32:22;99967.28;;;15.84;65.87
51603;BME280;37954;51.980;5.850;2023-03-23T15:36:34;99965.59;;;15.98;65.93
51603;BME280;37954;51.980;5.850;2023-03-23T15:40:49;99942.56;;;15.95;65.71
51603;BME280;37954;51.980;5.850;2023-03-23T15:49:24;99918.81;;;15.82;65.61
51603;BME280;37954;51.980;5.850;2023-03-23T15:53:36;99937.75;;;15.92;65.47
51603;BME280;37954;51.980;5.850;2023-03-23T15:57:48;99948.44;;;16.13;65.57
51603;BME280;37954;51.980;5.850;2023-03-23T16:02:04;99947.59;;;16.27;65.13
51603;BME280;37954;51.980;5.850;2023-03-23T16:06:18;99939.94;;;16.34;65.16
51603;BME280;37954;51.980;5.850;2023-03-23T16:10:35;99921.75;;;16.40;64.54
51603;BME280;37954;51.980;5.850;2023-03-23T16:14:47;99940.59;;;16.55;64.42
51603;BME280;37954;51.980;5.850;2023-03-23T16:18:59;99934.38;;;16.55;64.34
51603;BME280;37954;51.980;5.850;2023-03-23T16:23:10;99945.19;;;16.60;63.79
51603;BME280;37954;51.980;5.850;2023-03-23T16:27:22;99923.03;;;16.48;63.65
51603;BME280;37954;51.980;5.850;2023-03-23T16:31:34;99943.97;;;16.42;63.20
51603;BME280;37954;51.980;5.850;2023-03-23T16:35:46;99938.91;;;16.25;63.47
51603;BME280;37954;51.980;5.850;2023-03-23T16:39:57;99950.63;;;16.11;63.32
51603;BME280;37954;51.980;5.850;2023-03-23T16:44:09;99943.66;;;15.94;63.39
51603;BME280;37954;51.980;5.850;2023-03-23T16:48:21;99956.19;;;15.80;64.02
51603;BME280;37954;51.980;5.850;2023-03-23T16:52:33;99968.97;;;15.64;64.58
51603;BME280;37954;51.980;5.850;2023-03-23T16:56:56;99960.06;;;15.49;64.59
51603;BME280;37954;51.980;5.850;2023-03-23T17:01:08;99969.81;;;15.45;64.97
51603;BME280;37954;51.980;5.850;2023-03-23T17:05:21;99943.84;;;15.28;65.14
51603;BME280;37954;51.980;5.850;2023-03-23T17:09:33;99953.88;;;15.28;65.29
51603;BME280;37954;51.980;5.850;2023-03-23T17:13:44;99953.09;;;15.22;65.48
51603;BME280;37954;51.980;5.850;2023-03-23T17:17:56;99951.72;;;15.25;65.71
51603;BME280;37954;51.980;5.850;2023-03-23T17:22:08;99952.81;;;15.19;65.99
51603;BME280;37954;51.980;5.850;2023-03-23T17:26:19;99939.84;;;15.11;66.25
51603;BME280;37954;51.980;5.850;2023-03-23T17:30:31;99943.66;;;15.05;66.70
51603;BME280;37954;51.980;5.850;2023-03-23T17:34:43;99941.22;;;15.03;67.10
51603;BME280;37954;51.980;5.850;2023-03-23T17:38:55;99947.44;;;15.04;66.88
51603;BME280;37954;51.980;5.850;2023-03-23T17:43:07;99952.03;;;14.98;67.55
51603;BME280;37954;51.980;5.850;2023-03-23T17:47:18;99935.78;;;14.93;67.57
51603;BME280;37954;51.980;5.850;2023-03-23T17:51:30;99945.00;;;14.87;67.73
51603;BME280;37954;51.980;5.850;2023-03-23T17:55:42;99946.63;;;14.88;67.96
51603;BME280;37954;51.980;5.850;2023-03-23T17:59:54;99942.03;;;14.83;68.34
51603;BME280;37954;51.980;5.850;2023-03-23T18:04:06;99923.09;;;14.73;68.79
51603;BME280;37954;51.980;5.850;2023-03-23T18:08:17;99939.59;;;14.82;68.74
51603;BME280;37954;51.980;5.850;2023-03-23T18:12:29;99931.19;;;14.73;69.00
51603;BME280;37954;51.980;5.850;2023-03-23T18:16:41;99937.69;;;14.72;69.34
51603;BME280;37954;51.980;5.850;2023-03-23T18:21:04;99910.13;;;14.65;69.63
51603;BME280;37954;51.980;5.850;2023-03-23T18:25:17;99907.97;;;14.67;69.80
51603;BME280;37954;51.980;5.850;2023-03-23T18:29:29;99909.31;;;14.65;70.16
51603;BME280;37954;51.980;5.850;2023-03-23T18:33:42;99905.78;;;14.64;70.59
51603;BME280;37954;51.980;5.850;2023-03-23T18:37:57;99902.00;;;14.60;70.81
51603;BME280;37954;51.980;5.850;2023-03-23T18:42:08;99907.16;;;14.61;71.34
51603;BME280;37954;51.980;5.850;2023-03-23T18:46:20;99892.81;;;14.56;71.87
51603;BME280;37954;51.980;5.850;2023-03-23T18:50:32;99887.41;;;14.56;71.91
51603;BME280;37954;51.980;5.850;2023-03-23T18:54:44;99890.91;;;14.56;72.32
51603;BME280;37954;51.980;5.850;2023-03-23T18:58:56;99885.78;;;14.65;72.08
51603;BME280;37954;51.980;5.850;2023-03-23T19:03:08;99880.91;;;14.57;72.26
51603;BME280;37954;51.980;5.850;2023-03-23T19:07:22;99874.19;;;14.54;72.48
51603;BME280;37954;51.980;5.850;2023-03-23T19:11:34;99871.22;;;14.51;72.73
51603;BME280;37954;51.980;5.850;2023-03-23T19:15:46;99861.47;;;14.50;72.12
51603;BME280;37954;51.980;5.850;2023-03-23T19:19:57;99860.66;;;14.44;72.63
51603;BME280;37954;51.980;5.850;2023-03-23T19:24:10;99843.09;;;14.47;72.69
51603;BME280;37954;51.980;5.850;2023-03-23T19:28:22;99852.03;;;14.52;72.65
51603;BME280;37954;51.980;5.850;2023-03-23T19:32:54;99833.09;;;14.42;73.02
51603;BME280;37954;51.980;5.850;2023-03-23T19:37:06;99822.28;;;14.37;73.25
51603;BME280;37954;51.980;5.850;2023-03-23T19:41:22;99814.44;;;14.36;73.37
51603;BME280;37954;51.980;5.850;2023-03-23T19:45:35;99820.94;;;14.35;73.04
51603;BME280;37954;51.980;5.850;2023-03-23T19:49:47;99804.72;;;14.29;73.32
51603;BME280;37954;51.980;5.850;2023-03-23T19:53:59;99820.09;;;14.39;73.09
51603;BME280;37954;51.980;5.850;2023-03-23T19:58:11;99819.59;;;14.42;72.94
51603;BME280;37954;51.980;5.850;2023-03-23T20:02:24;99795.81;;;14.34;72.99
51603;BME280;37954;51.980;5.850;2023-03-23T20:06:36;99812.56;;;14.36;72.78
51603;BME280;37954;51.980;5.850;2023-03-23T20:10:48;99798.22;;;14.31;72.92
51603;BME280;37954;51.980;5.850;2023-03-23T20:15:00;99794.16;;;14.28;72.87
51603;BME280;37954;51.980;5.850;2023-03-23T20:19:12;99799.84;;;14.26;72.88
51603;BME280;37954;51.980;5.850;2023-03-23T20:23:24;99783.34;;;14.23;73.23
51603;BME280;37954;51.980;5.850;2023-03-23T20:27:35;99789.03;;;14.26;73.11
51603;BME280;37954;51.980;5.850;2023-03-23T20:31:48;99788.50;;;14.19;73.25
51603;BME280;37954;51.980;5.850;2023-03-23T20:36:03;99789.31;;;14.15;73.90
51603;BME280;37954;51.980;5.850;2023-03-23T20:40:15;99782.00;;;14.05;74.93
51603;BME280;37954;51.980;5.850;2023-03-23T20:44:27;99781.19;;;13.89;75.91
51603;BME280;37954;51.980;5.850;2023-03-23T20:48:41;99777.94;;;13.77;76.80
51603;BME280;37954;51.980;5.850;2023-03-23T20:52:53;99776.06;;;13.68;77.64
51603;BME280;37954;51.980;5.850;2023-03-23T20:57:05;99768.72;;;13.58;78.37
51603;BME280;37954;51.980;5.850;2023-03-23T21:01:19;99772.22;;;13.53;79.00
51603;BME280;37954;51.980;5.850;2023-03-23T21:05:32;99766.81;;;13.53;79.86
51603;BME280;37954;51.980;5.850;2023-03-23T21:09:44;99751.16;;;13.45;79.93
51603;BME280;37954;51.980;5.850;2023-03-23T21:13:56;99752.50;;;13.43;80.01
51603;BME280;37954;51.980;5.850;2023-03-23T21:18:08;99756.31;;;13.47;80.17
51603;BME280;37954;51.980;5.850;2023-03-23T21:22:20;99745.72;;;13.35;81.22
51603;BME280;37954;51.980;5.850;2023-03-23T21:26:32;99737.34;;;13.27;82.03
51603;BME280;37954;51.980;5.850;2023-03-23T21:30:44;99730.09;;;13.27;82.37
51603;BME280;37954;51.980;5.850;2023-03-23T21:34:58;99722.22;;;13.20;82.83
51603;BME280;37954;51.980;5.850;2023-03-23T21:39:13;99706.56;;;13.12;83.08
51603;BME280;37954;51.980;5.850;2023-03-23T21:43:26;99710.63;;;13.20;82.95
51603;BME280;37954;51.980;5.850;2023-03-23T21:47:39;99692.25;;;13.12;83.44
51603;BME280;37954;51.980;5.850;2023-03-23T21:51:53;99694.13;;;13.06;84.42
51603;BME280;37954;51.980;5.850;2023-03-23T21:56:06;99690.34;;;13.07;84.78
51603;BME280;37954;51.980;5.850;2023-03-23T22:00:19;99686.28;;;13.05;85.03
51603;BME280;37954;51.980;5.850;2023-03-23T22:04:31;99685.78;;;13.08;85.52
51603;BME280;37954;51.980;5.850;2023-03-23T22:08:44;99668.50;;;13.04;85.38
51603;BME280;37954;51.980;5.850;2023-03-23T22:12:56;99659.59;;;13.03;86.07
51603;BME280;37954;51.980;5.850;2023-03-23T22:17:09;99662.59;;;13.07;85.68
51603;BME280;37954;51.980;5.850;2023-03-23T22:21:21;99662.88;;;13.10;85.62
51603;BME280;37954;51.980;5.850;2023-03-23T22:25:36;99636.16;;;13.04;85.37
51603;BME280;37954;51.980;5.850;2023-03-23T22:29:47;99632.66;;;12.98;85.81
51603;BME280;37954;51.980;5.850;2023-03-23T22:34:00;99633.16;;;13.00;85.88
51603;BME280;37954;51.980;5.850;2023-03-23T22:38:12;99628.06;;;12.99;86.13
51603;BME280;37954;51.980;5.850;2023-03-23T22:42:23;99632.09;;;13.01;85.83
51603;BME280;37954;51.980;5.850;2023-03-23T22:46:35;99610.22;;;12.82;86.71
51603;BME280;37954;51.980;5.850;2023-03-23T22:50:47;99606.47;;;12.88;86.51
51603;BME280;37954;51.980;5.850;2023-03-23T22:54:59;99611.84;;;12.88;86.97
51603;BME280;37954;51.980;5.850;2023-03-23T22:59:10;99593.78;;;12.84;87.43
51603;BME280;37954;51.980;5.850;2023-03-23T23:03:23;99581.09;;;12.74;88.21
51603;BME280;37954;51.980;5.850;2023-03-23T23:07:35;99592.72;;;12.80;88.30
51603;BME280;37954;51.980;5.850;2023-03-23T23:11:47;99566.25;;;12.67;88.40
51603;BME280;37954;51.980;5.850;2023-03-23T23:16:00;99560.06;;;12.66;88.97
51603;BME280;37954;51.980;5.850;2023-03-23T23:20:12;99554.13;;;12.69;88.90
51603;BME280;37954;51.980;5.850;2023-03-23T23:24:24;99555.22;;;12.68;88.99
51603;BME280;37954;51.980;5.850;2023-03-23T23:28:36;99553.06;;;12.70;88.90
51603;BME280;37954;51.980;5.850;2023-03-23T23:32:48;99550.09;;;12.67;89.10
51603;BME280;37954;51.980;5.850;2023-03-23T23:37:02;99538.50;;;12.66;89.63
51603;BME280;37954;51.980;5.850;2023-03-23T23:41:14;99542.00;;;12.67;89.88
51603;BME280;37954;51.980;5.850;2023-03-23T23:45:26;99542.56;;;12.74;90.26
51603;BME280;37954;51.980;5.850;2023-03-23T23:49:38;99532.59;;;12.69;90.24